Time;durP1;ratioP1;P1;durP2;ratioP2;P2;SDS_P1;SDS_P2;PMS_P1;PMS_P2;Temp;Humidity;BMP_temperature;BMP_pressure;BME280_temperature;BME280_humidity;BME280_pressure;Samples;Min_cycle;Max_cycle;Signal;HPM_P1;HPM_P2
2022/04/04 14:22:15;;;;;;;39.00;14.90;;;16.70;77.40;;;;;;5099109;27;1520037;-59
2022/04/04 14:24:41;;;;;;;87.43;39.17;;;16.80;74.30;;;;;;5125064;27;20054;-62
2022/04/04 14:27:06;;;;;;;21.33;10.20;;;16.50;75.00;;;;;;5125048;28;20386;-61
2022/04/04 14:29:32;;;;;;;19.52;6.32;;;15.60;76.10;;;;;;5125047;28;20034;-60
2022/04/04 14:31:58;;;;;;;19.52;7.72;;;15.20;78.90;;;;;;5124918;27;20095;-62
2022/04/04 14:34:24;;;;;;;25.83;10.43;;;14.50;82.50;;;;;;5125147;27;20087;-60
2022/04/04 14:36:51;;;;;;;34.92;15.55;;;14.20;84.40;;;;;;5125061;28;20448;-62
2022/04/04 14:39:17;;;;;;;21.00;11.32;;;14.00;85.20;;;;;;5124614;27;20032;-62
2022/04/04 14:41:43;;;;;;;19.08;8.00;;;13.50;86.80;;;;;;5124922;27;20119;-62
2022/04/04 14:44:09;;;;;;;73.75;40.50;;;13.10;88.20;;;;;;5124430;27;20516;-63
2022/04/04 14:46:36;;;;;;;13.00;5.35;;;12.90;90.10;;;;;;5124593;27;20027;-68
2022/04/04 14:49:03;;;;;;;19.73;6.43;;;12.70;90.20;;;;;;5125028;27;20025;-63
2022/04/04 14:51:33;;;;;;;13.30;3.83;;;12.50;91.40;;;;;;5120133;27;20027;-64
2022/04/04 14:54:00;;;;;;;11.68;3.22;;;12.20;91.50;;;;;;5122255;27;20015;-64
2022/04/04 14:56:25;;;;;;;36.58;15.35;;;12.20;91.90;;;;;;5124663;27;20085;-64
2022/04/04 14:58:51;;;;;;;20.10;7.93;;;12.30;91.60;;;;;;5123968;28;20027;-65
2022/04/04 15:01:17;;;;;;;26.40;7.63;;;12.40;91.90;;;;;;5124054;27;20047;-65
2022/04/04 15:03:43;;;;;;;15.93;4.68;;;12.70;91.50;;;;;;5124373;27;20051;-62
2022/04/04 15:06:09;;;;;;;15.43;3.35;;;12.90;90.60;;;;;;5124145;28;20116;-65
2022/04/04 15:08:35;;;;;;;13.00;3.92;;;13.40;88.80;;;;;;5123535;27;20129;-66
2022/04/04 15:11:00;;;;;;;17.08;3.95;;;14.20;86.20;;;;;;5106516;28;20040;-62
2022/04/04 15:13:26;;;;;;;21.33;6.90;;;14.80;83.70;;;;;;5103151;28;20102;-64
2022/04/04 15:15:52;;;;;;;21.77;6.60;;;14.60;81.70;;;;;;5106332;28;20424;-64
2022/04/04 15:18:18;;;;;;;17.42;5.32;;;14.50;84.80;;;;;;5123707;28;20141;-64
2022/04/04 15:20:44;;;;;;;24.75;7.45;;;14.40;84.30;;;;;;5120567;27;20093;-63
2022/04/04 15:23:10;;;;;;;18.33;6.97;;;14.50;83.60;;;;;;5117222;28;20031;-67
2022/04/04 15:25:36;;;;;;;14.02;5.25;;;14.30;84.30;;;;;;5117606;27;20036;-64
2022/04/04 15:28:02;;;;;;;17.40;5.35;;;14.30;85.30;;;;;;5103781;27;20028;-65
2022/04/04 15:30:36;;;;;;;19.65;5.07;;;14.00;85.20;;;;;;5116618;28;20034;-65
2022/04/04 15:33:01;;;;;;;17.67;4.82;;;13.90;86.70;;;;;;5113372;27;20030;-67
2022/04/04 15:35:27;;;;;;;18.80;4.95;;;13.80;87.10;;;;;;5109930;28;20115;-64
2022/04/04 15:37:53;;;;;;;17.25;5.32;;;13.70;88.10;;;;;;5109577;28;20023;-64
2022/04/04 15:40:18;;;;;;;14.02;3.72;;;13.70;88.00;;;;;;5110111;28;20020;-63
2022/04/04 15:42:45;;;;;;;15.15;4.15;;;13.70;87.90;;;;;;5110233;28;20055;-65
2022/04/04 15:45:12;;;;;;;16.80;4.03;;;14.10;87.30;;;;;;5109721;28;20384;-65
2022/04/04 15:47:37;;;;;;;12.45;4.55;;;14.00;86.50;;;;;;5109688;28;20030;-65
2022/04/04 15:50:06;;;;;;;16.48;4.85;;;14.00;86.50;;;;;;5109943;28;20020;-64
2022/04/04 15:52:31;;;;;;;13.73;3.92;;;14.00;86.70;;;;;;5109701;28;20072;-65
2022/04/04 15:54:58;;;;;;;17.77;4.07;;;14.20;87.50;;;;;;5109563;28;20020;-66
2022/04/04 15:57:24;;;;;;;14.55;4.15;;;13.80;87.00;;;;;;5109231;28;20078;-66
2022/04/04 15:59:50;;;;;;;16.75;4.30;;;13.50;88.70;;;;;;5109236;28;20052;-64
2022/04/04 16:02:15;;;;;;;18.17;4.97;;;13.40;90.10;;;;;;5109626;28;20036;-63
2022/04/04 16:04:41;;;;;;;17.08;3.85;;;13.30;90.40;;;;;;5109791;28;20141;-63
2022/04/04 16:07:07;;;;;;;12.00;4.43;;;13.30;90.60;;;;;;5108930;28;20035;-63
2022/04/04 16:09:33;;;;;;;22.35;4.47;;;13.60;90.10;;;;;;5109143;28;20035;-62
2022/04/04 16:12:00;;;;;;;17.95;4.85;;;14.00;89.20;;;;;;5109179;28;20100;-64
2022/04/04 16:14:26;;;;;;;16.35;4.35;;;14.10;87.70;;;;;;5109374;28;20103;-63
2022/04/04 16:16:53;;;;;;;17.65;4.65;;;14.20;88.10;;;;;;5109266;28;20111;-63
2022/04/04 16:19:19;;;;;;;17.75;4.63;;;14.30;87.40;;;;;;5109458;28;20020;-62
2022/04/04 16:21:46;;;;;;;14.15;4.40;;;14.20;86.50;;;;;;5108815;28;20055;-64
2022/04/04 16:24:13;;;;;;;21.65;4.85;;;14.10;87.40;;;;;;5109157;28;20079;-63
2022/04/04 16:26:40;;;;;;;22.27;5.05;;;14.20;87.70;;;;;;5108925;28;20486;-62
2022/04/04 16:29:06;;;;;;;17.40;5.05;;;14.40;88.10;;;;;;5108778;28;20102;-63
2022/04/04 16:31:32;;;;;;;18.63;5.43;;;14.40;87.10;;;;;;5109156;28;20111;-63
2022/04/04 16:33:57;;;;;;;15.27;5.25;;;14.50;86.80;;;;;;5108770;28;20031;-63
2022/04/04 16:36:23;;;;;;;24.77;6.47;;;14.50;87.10;;;;;;5108877;28;20046;-63
2022/04/04 16:38:48;;;;;;;14.68;5.43;;;14.50;86.10;;;;;;5108541;28;20023;-63
2022/04/04 16:41:19;;;;;;;21.35;5.45;;;14.40;86.20;;;;;;5108935;28;20043;-64
2022/04/04 16:43:46;;;;;;;20.75;5.43;;;14.40;86.40;;;;;;5107808;28;20030;-63
2022/04/04 16:46:16;;;;;;;20.92;5.22;;;14.00;87.90;;;;;;5108996;28;20335;-63
2022/04/04 16:48:42;;;;;;;;;;;14.20;88.10;;;;;;5109353;28;20165;-63
2022/04/04 16:51:08;;;;;;;16.70;5.35;;;14.20;88.70;;;;;;5108725;28;20355;-63
2022/04/04 16:53:35;;;;;;;16.60;5.07;;;14.30;88.30;;;;;;5108774;28;20382;-62
2022/04/04 16:56:01;;;;;;;18.38;5.57;;;14.10;88.20;;;;;;5108395;28;20394;-63
2022/04/04 16:58:28;;;;;;;17.23;4.68;;;14.30;89.00;;;;;;5090930;28;20016;-63
2022/04/04 17:00:54;;;;;;;10.38;3.78;;;14.30;88.40;;;;;;5105048;28;20507;-63
2022/04/04 17:03:20;;;;;;;18.67;4.40;;;14.20;88.90;;;;;;5108353;28;20019;-63
2022/04/04 17:05:46;;;;;;;16.42;4.40;;;14.10;88.00;;;;;;5108241;28;20039;-63
2022/04/04 17:08:11;;;;;;;19.45;4.25;;;13.80;89.30;;;;;;5108171;28;20015;-63
2022/04/04 17:10:37;;;;;;;16.80;5.18;;;13.40;90.20;;;;;;5108446;28;20028;-62
2022/04/04 17:13:05;;;;;;;16.70;5.53;;;13.30;91.00;;;;;;5108566;28;20107;-63
2022/04/04 17:15:30;;;;;;;17.83;4.85;;;13.20;91.70;;;;;;5108054;28;20112;-62
2022/04/04 17:17:56;;;;;;;19.58;4.65;;;13.10;91.40;;;;;;5108466;28;20055;-63
2022/04/04 17:20:22;;;;;;;10.20;3.80;;;13.00;91.40;;;;;;5107726;28;20461;-63
2022/04/04 17:22:48;;;;;;;9.35;3.90;;;13.00;91.70;;;;;;5107832;28;20032;-63
2022/04/04 17:25:14;;;;;;;15.85;4.47;;;12.90;91.90;;;;;;5107759;28;20023;-63
2022/04/04 17:27:40;;;;;;;17.27;4.63;;;12.70;92.00;;;;;;5107966;28;20036;-62
2022/04/04 17:30:06;;;;;;;16.30;4.18;;;12.60;92.30;;;;;;5107605;28;20529;-62
2022/04/04 17:32:33;;;;;;;17.73;4.45;;;12.50;92.50;;;;;;5107941;28;20089;-63
2022/04/04 17:34:59;;;;;;;17.13;4.95;;;12.50;92.70;;;;;;5107828;28;20115;-63
2022/04/04 17:37:25;;;;;;;17.55;4.68;;;12.40;93.00;;;;;;5107899;28;20107;-63
2022/04/04 17:39:51;;;;;;;15.82;4.93;;;12.40;93.10;;;;;;5108206;28;20019;-64
2022/04/04 17:42:16;;;;;;;16.88;5.32;;;12.40;93.10;;;;;;5107800;28;20118;-64
2022/04/04 17:44:42;;;;;;;11.80;3.95;;;12.30;93.10;;;;;;5107829;28;20031;-63
2022/04/04 17:47:08;;;;;;;18.20;6.10;;;12.30;93.30;;;;;;5107620;28;20104;-63
2022/04/04 17:49:34;;;;;;;21.27;5.50;;;12.20;93.40;;;;;;5107605;28;20114;-63
2022/04/04 17:52:00;;;;;;;13.07;4.88;;;12.20;93.50;;;;;;5107498;28;20106;-63
2022/04/04 17:54:27;;;;;;;19.27;5.25;;;12.20;93.60;;;;;;5107244;28;20032;-63
2022/04/04 17:56:54;;;;;;;18.25;5.20;;;12.20;93.60;;;;;;5107546;28;20522;-63
2022/04/04 17:59:22;;;;;;;20.58;5.43;;;12.10;93.50;;;;;;5107303;28;20143;-63
2022/04/04 18:01:52;;;;;;;16.60;5.07;;;12.10;93.90;;;;;;5107266;28;20046;-63
2022/04/04 18:04:19;;;;;;;18.23;5.38;;;12.00;93.70;;;;;;5107120;28;20434;-64
2022/04/04 18:06:45;;;;;;;17.08;4.80;;;12.00;93.90;;;;;;5107242;28;20037;-64
2022/04/04 18:09:11;;;;;;;13.77;4.60;;;12.00;94.00;;;;;;5107736;28;20381;-62
2022/04/04 18:11:37;;;;;;;17.83;4.90;;;11.90;94.10;;;;;;5107286;28;20023;-63
2022/04/04 18:14:04;;;;;;;19.02;5.53;;;11.90;94.10;;;;;;5107353;28;20019;-62
2022/04/04 18:16:31;;;;;;;20.00;5.85;;;11.80;94.30;;;;;;5107130;28;20409;-63
2022/04/04 18:18:57;;;;;;;14.27;5.00;;;11.80;94.50;;;;;;5107402;28;20023;-62
2022/04/04 18:21:23;;;;;;;17.08;5.90;;;11.70;94.50;;;;;;5107314;28;20055;-62
2022/04/04 18:23:48;;;;;;;20.27;5.57;;;11.70;94.50;;;;;;5107016;28;20032;-65
2022/04/04 18:26:15;;;;;;;16.27;5.25;;;11.60;94.70;;;;;;5107457;28;20226;-68
2022/04/04 18:28:41;;;;;;;17.23;5.25;;;11.70;94.90;;;;;;5107037;28;20452;-66
2022/04/04 18:31:10;;;;;;;20.63;6.35;;;11.70;94.70;;;;;;5107179;28;20537;-64
2022/04/04 18:33:36;;;;;;;17.90;5.73;;;11.70;94.90;;;;;;5107110;28;20043;-66
2022/04/04 18:36:03;;;;;;;16.13;6.10;;;11.60;95.00;;;;;;5107110;28;20406;-66
2022/04/04 18:38:29;;;;;;;17.33;6.40;;;11.60;94.90;;;;;;5107749;28;20058;-66
2022/04/04 18:40:55;;;;;;;18.05;6.20;;;11.70;95.00;;;;;;5107069;28;20071;-66
2022/04/04 18:43:21;;;;;;;21.08;6.43;;;11.60;95.10;;;;;;5107170;28;20027;-66
2022/04/04 18:45:47;;;;;;;21.98;6.45;;;11.60;95.10;;;;;;5106604;28;20449;-65
2022/04/04 18:48:12;;;;;;;17.33;6.53;;;11.60;95.20;;;;;;5106876;28;20107;-65
2022/04/04 18:50:40;;;;;;;17.67;7.13;;;11.60;95.40;;;;;;5106494;28;20063;-66
2022/04/04 18:53:06;;;;;;;21.73;6.65;;;11.60;95.70;;;;;;5105340;28;20028;-65
2022/04/04 18:55:32;;;;;;;18.30;6.57;;;11.60;95.70;;;;;;5104846;28;20028;-65
2022/04/04 18:57:58;;;;;;;14.02;5.85;;;11.60;95.50;;;;;;5105908;28;20121;-66
2022/04/04 19:00:24;;;;;;;20.35;6.95;;;11.70;95.40;;;;;;5106528;28;20118;-66
2022/04/04 19:02:50;;;;;;;12.82;4.95;;;11.70;95.50;;;;;;5107241;28;20123;-67
2022/04/04 19:05:16;;;;;;;16.38;5.90;;;11.80;95.50;;;;;;5106817;28;20102;-65
2022/04/04 19:07:42;;;;;;;9.88;4.65;;;11.90;95.40;;;;;;5108295;28;20028;-66
2022/04/04 19:10:08;;;;;;;5.22;3.50;;;12.00;95.40;;;;;;5111025;28;20028;-65
2022/04/04 19:12:34;;;;;;;5.43;3.92;;;12.20;95.00;;;;;;5109210;28;20493;-62
2022/04/04 19:15:00;;;;;;;4.07;3.00;;;12.30;94.70;;;;;;5110445;28;20106;-64
2022/04/04 19:17:26;;;;;;;8.52;3.78;;;12.50;94.40;;;;;;5110627;28;20127;-65
2022/04/04 19:19:52;;;;;;;6.47;3.35;;;12.60;93.80;;;;;;5110707;28;20024;-64
2022/04/04 19:22:17;;;;;;;7.47;3.67;;;12.70;93.50;;;;;;5110058;28;20078;-64
2022/04/04 19:24:43;;;;;;;4.85;2.92;;;12.80;93.50;;;;;;5110354;28;20103;-63
2022/04/04 19:27:10;;;;;;;8.00;3.20;;;12.80;93.10;;;;;;5110326;28;20114;-63
2022/04/04 19:29:37;;;;;;;8.77;3.45;;;12.90;93.30;;;;;;5109891;28;20071;-63
2022/04/04 19:32:05;;;;;;;6.55;3.88;;;12.90;92.90;;;;;;5110109;28;20047;-64
2022/04/04 19:34:33;;;;;;;5.97;3.30;;;12.90;93.00;;;;;;5110419;28;20023;-66
2022/04/04 19:37:00;;;;;;;5.75;3.05;;;12.90;93.00;;;;;;5109999;28;20020;-65
2022/04/04 19:39:26;;;;;;;6.82;3.13;;;13.00;92.80;;;;;;5110848;28;20023;-65
2022/04/04 19:41:51;;;;;;;6.15;3.17;;;13.00;92.80;;;;;;5109799;28;20169;-65
2022/04/04 19:44:17;;;;;;;5.28;3.17;;;13.00;92.60;;;;;;5109648;28;20061;-65
2022/04/04 19:46:43;;;;;;;5.57;3.42;;;12.90;92.60;;;;;;5109834;28;20039;-65
2022/04/04 19:49:09;;;;;;;6.18;3.80;;;12.90;92.80;;;;;;5109723;28;20027;-64
2022/04/04 19:51:36;;;;;;;6.60;3.63;;;12.90;93.00;;;;;;5109489;28;20028;-64
2022/04/04 19:54:03;;;;;;;4.80;3.35;;;12.90;92.80;;;;;;5109709;28;20505;-64
2022/04/04 19:56:29;;;;;;;9.15;3.30;;;12.90;92.60;;;;;;5109768;28;20028;-64
2022/04/04 19:58:55;;;;;;;7.32;3.70;;;12.90;92.90;;;;;;5109673;28;20419;-64
2022/04/04 20:01:23;;;;;;;8.68;4.18;;;12.90;92.90;;;;;;5109666;28;20042;-64
2022/04/04 20:03:49;;;;;;;7.20;3.60;;;12.80;92.90;;;;;;5109765;28;20035;-67
2022/04/04 20:06:17;;;;;;;6.88;4.40;;;12.80;92.60;;;;;;5109435;28;20080;-65
2022/04/04 20:08:43;;;;;;;7.70;4.45;;;12.80;93.00;;;;;;5109463;28;20466;-66
2022/04/04 20:11:09;;;;;;;8.27;3.90;;;12.70;92.90;;;;;;5109290;28;20031;-64
2022/04/04 20:13:35;;;;;;;8.15;4.60;;;12.70;93.00;;;;;;5109402;28;20028;-64
2022/04/04 20:16:01;;;;;;;6.75;3.70;;;12.80;92.90;;;;;;5109600;28;20031;-65
2022/04/04 20:18:28;;;;;;;8.52;3.75;;;12.80;92.80;;;;;;5109536;28;20027;-62
2022/04/04 20:20:54;;;;;;;5.55;3.80;;;12.80;92.90;;;;;;5108860;28;20054;-63
2022/04/04 20:23:19;;;;;;;6.82;3.88;;;12.90;92.60;;;;;;5109363;28;20039;-63
2022/04/04 20:25:45;;;;;;;6.80;3.65;;;12.90;92.50;;;;;;5108951;28;20047;-62
2022/04/04 20:28:11;;;;;;;11.27;4.05;;;12.90;92.60;;;;;;5108874;28;20024;-62
2022/04/04 20:30:37;;;;;;;5.90;4.03;;;12.90;92.30;;;;;;5108938;28;20031;-62
2022/04/04 20:33:03;;;;;;;6.88;3.83;;;12.90;92.20;;;;;;5109282;28;20111;-62
2022/04/04 20:35:28;;;;;;;6.78;3.60;;;12.90;92.20;;;;;;5108974;28;20391;-62
2022/04/04 20:37:56;;;;;;;5.95;3.38;;;12.80;92.40;;;;;;5108710;28;20473;-61
2022/04/04 20:40:22;;;;;;;5.50;3.38;;;12.80;92.50;;;;;;5108640;28;20043;-62
2022/04/04 20:42:48;;;;;;;5.25;3.08;;;12.80;92.40;;;;;;5109085;28;20101;-62
2022/04/04 20:45:14;;;;;;;5.30;3.13;;;12.80;92.20;;;;;;5108766;28;20378;-62
2022/04/04 20:47:44;;;;;;;8.07;3.80;;;12.80;92.20;;;;;;5108666;28;20069;-62
2022/04/04 20:50:10;;;;;;;10.77;3.83;;;12.80;92.30;;;;;;5108407;28;20028;-61
2022/04/04 20:52:37;;;;;;;9.57;3.97;;;12.70;92.50;;;;;;5108727;28;20263;-61
2022/04/04 20:55:03;;;;;;;6.28;3.55;;;12.70;92.40;;;;;;5108723;28;20028;-63
2022/04/04 20:57:28;;;;;;;5.47;3.30;;;12.70;92.50;;;;;;5108480;28;20106;-63
2022/04/04 20:59:55;;;;;;;7.65;3.28;;;12.70;92.70;;;;;;5108560;28;20119;-63
2022/04/04 21:02:21;;;;;;;6.30;3.35;;;12.70;92.60;;;;;;5092194;28;20046;-62
2022/04/04 21:04:47;;;;;;;8.65;3.50;;;12.70;92.20;;;;;;5088151;28;20103;-63
2022/04/04 21:07:13;;;;;;;5.68;3.33;;;12.70;92.30;;;;;;5087897;28;20032;-63
2022/04/04 21:09:38;;;;;;;7.93;4.00;;;12.70;92.30;;;;;;5088224;28;20030;-64
2022/04/04 21:12:04;;;;;;;4.60;2.97;;;12.70;92.30;;;;;;5088190;28;20028;-63
2022/04/04 21:14:30;;;;;;;4.95;3.47;;;12.70;92.20;;;;;;5088175;28;20029;-63
2022/04/04 21:16:57;;;;;;;7.97;3.30;;;12.70;92.70;;;;;;5087697;28;20017;-64
2022/04/04 21:19:23;;;;;;;6.30;3.60;;;12.70;92.40;;;;;;5087836;28;20074;-65
2022/04/04 21:21:49;;;;;;;5.63;3.20;;;12.70;92.50;;;;;;5087448;28;20415;-64
2022/04/04 21:24:15;;;;;;;8.48;3.05;;;12.70;92.30;;;;;;5087807;28;20020;-63
2022/04/04 21:26:41;;;;;;;5.22;2.92;;;12.70;92.10;;;;;;5088077;28;20035;-63
2022/04/04 21:29:06;;;;;;;5.22;2.85;;;12.70;92.40;;;;;;5089439;28;20036;-63
2022/04/04 21:31:33;;;;;;;10.30;3.63;;;12.70;92.30;;;;;;5107117;28;20046;-63
2022/04/04 21:33:59;;;;;;;7.75;3.13;;;12.70;92.20;;;;;;5107850;28;20415;-63
2022/04/04 21:36:25;;;;;;;6.78;3.40;;;12.70;92.30;;;;;;5107755;28;20028;-63
2022/04/04 21:38:51;;;;;;;5.00;3.08;;;12.70;92.10;;;;;;5107940;28;20446;-63
2022/04/04 21:41:17;;;;;;;5.47;3.20;;;12.70;92.10;;;;;;5107621;28;20020;-63
2022/04/04 21:43:43;;;;;;;6.75;3.40;;;12.70;92.10;;;;;;5107607;28;20028;-64
2022/04/04 21:46:10;;;;;;;8.18;3.72;;;12.80;91.90;;;;;;5107594;28;20051;-63
2022/04/04 21:48:36;;;;;;;6.35;3.20;;;12.80;91.90;;;;;;5107468;28;20479;-63
2022/04/04 21:51:02;;;;;;;7.13;3.45;;;12.80;92.10;;;;;;5107122;28;20024;-63
2022/04/04 21:53:29;;;;;;;6.50;4.00;;;12.70;92.10;;;;;;5107589;28;20040;-63
2022/04/04 21:55:54;;;;;;;8.18;4.32;;;12.70;92.10;;;;;;5107510;28;20104;-63
2022/04/04 21:58:20;;;;;;;8.65;3.90;;;12.70;91.90;;;;;;5106980;28;20413;-63
2022/04/04 22:00:45;;;;;;;7.47;4.63;;;12.70;92.10;;;;;;5107149;28;20391;-63
2022/04/04 22:03:11;;;;;;;7.97;3.95;;;12.70;92.20;;;;;;5107682;28;20244;-63
2022/04/04 22:05:37;;;;;;;7.05;3.67;;;12.70;92.10;;;;;;5107456;28;20035;-63
2022/04/04 22:08:03;;;;;;;6.63;4.22;;;12.70;92.00;;;;;;5107293;28;20089;-63
2022/04/04 22:10:29;;;;;;;5.28;3.50;;;12.70;92.10;;;;;;5107236;28;20115;-64
2022/04/04 22:12:57;;;;;;;7.13;3.80;;;12.60;92.20;;;;;;5107377;28;20445;-63
2022/04/04 22:15:22;;;;;;;5.18;3.65;;;12.60;92.30;;;;;;5107218;28;20054;-63
2022/04/04 22:17:49;;;;;;;8.55;3.55;;;12.60;92.30;;;;;;5107392;28;20750;-64
2022/04/04 22:20:15;;;;;;;7.00;3.78;;;12.60;92.40;;;;;;5107281;28;20024;-63
2022/04/04 22:22:41;;;;;;;5.93;3.72;;;12.50;92.60;;;;;;5106656;28;20055;-63
2022/04/04 22:25:08;;;;;;;7.25;3.67;;;12.50;92.30;;;;;;5107452;28;20342;-63
2022/04/04 22:27:35;;;;;;;5.15;3.25;;;12.60;92.30;;;;;;5107378;28;20089;-63
2022/04/04 22:30:02;;;;;;;6.10;3.50;;;12.60;92.40;;;;;;5106814;28;20026;-63
2022/04/04 22:32:27;;;;;;;8.38;3.35;;;12.60;92.30;;;;;;5107577;28;20035;-63
2022/04/04 22:34:53;;;;;;;7.45;3.67;;;12.50;92.40;;;;;;5106997;28;20439;-63
2022/04/04 22:37:19;;;;;;;5.93;3.83;;;12.50;92.60;;;;;;5105578;28;20023;-62
2022/04/04 22:39:45;;;;;;;6.53;3.33;;;12.50;92.40;;;;;;5107211;28;20463;-62
2022/04/04 22:42:11;;;;;;;7.00;3.67;;;12.50;92.50;;;;;;5108089;28;20050;-62
2022/04/04 22:44:38;;;;;;;7.60;3.70;;;12.40;92.80;;;;;;5110127;28;20031;-64
2022/04/04 22:47:04;;;;;;;8.95;3.90;;;12.30;92.90;;;;;;5111278;28;20035;-65
2022/04/04 22:49:30;;;;;;;8.00;4.32;;;12.30;92.80;;;;;;5110946;28;20352;-65
2022/04/04 22:51:55;;;;;;;4.78;3.58;;;12.30;92.80;;;;;;5111121;28;20554;-64
2022/04/04 22:54:21;;;;;;;7.03;3.72;;;12.30;93.00;;;;;;5107578;28;20034;-65
2022/04/04 22:56:49;;;;;;;6.45;3.80;;;12.30;93.00;;;;;;5110984;28;20131;-65
2022/04/04 22:59:15;;;;;;;6.35;3.92;;;12.30;93.20;;;;;;5111011;27;20032;-64
2022/04/04 23:01:41;;;;;;;6.82;3.85;;;12.30;93.00;;;;;;5111051;28;20089;-65
2022/04/04 23:04:07;;;;;;;5.93;3.42;;;12.30;93.20;;;;;;5110992;28;20032;-65
2022/04/04 23:06:33;;;;;;;6.72;3.80;;;12.30;93.10;;;;;;5110782;28;20024;-64
2022/04/04 23:08:58;;;;;;;4.25;3.28;;;12.30;92.90;;;;;;5110680;28;20493;-64
2022/04/04 23:11:24;;;;;;;11.70;3.83;;;12.30;93.00;;;;;;5110574;28;20047;-64
2022/04/04 23:13:50;;;;;;;6.10;3.22;;;12.30;93.00;;;;;;5110651;28;20023;-64
2022/04/04 23:16:15;;;;;;;7.50;3.97;;;12.30;92.80;;;;;;5110516;28;20028;-64
2022/04/04 23:18:41;;;;;;;4.97;3.38;;;12.40;92.70;;;;;;5110500;28;20099;-63
2022/04/04 23:21:07;;;;;;;7.50;3.75;;;12.40;92.80;;;;;;5110535;28;20074;-64
2022/04/04 23:23:33;;;;;;;5.57;4.10;;;12.40;92.70;;;;;;5110836;28;20042;-63
2022/04/04 23:25:59;;;;;;;5.72;3.28;;;12.40;92.20;;;;;;5110515;28;20024;-64
2022/04/04 23:28:24;;;;;;;5.75;2.88;;;12.50;92.30;;;;;;5110443;27;20098;-63
2022/04/04 23:30:50;;;;;;;4.90;3.13;;;12.50;92.30;;;;;;5110219;28;20126;-64
2022/04/04 23:33:17;;;;;;;4.28;2.45;;;12.50;91.90;;;;;;5110125;27;20069;-63
2022/04/04 23:35:43;;;;;;;3.72;2.70;;;12.50;91.80;;;;;;5110499;28;20038;-63
2022/04/04 23:38:09;;;;;;;3.60;2.95;;;12.50;91.80;;;;;;5110392;28;20039;-63
2022/04/04 23:40:35;;;;;;;5.18;2.65;;;12.50;91.60;;;;;;5110290;27;20100;-63
2022/04/04 23:43:01;;;;;;;5.82;2.65;;;12.50;91.40;;;;;;5110372;27;20032;-63
2022/04/04 23:45:27;;;;;;;3.67;2.63;;;12.50;91.60;;;;;;5109852;28;20381;-63
2022/04/04 23:47:55;;;;;;;6.10;2.95;;;12.50;91.60;;;;;;5110362;28;20035;-63
2022/04/04 23:50:24;;;;;;;6.22;3.25;;;12.50;91.70;;;;;;5109439;28;20380;-63
2022/04/04 23:52:50;;;;;;;4.57;3.20;;;12.50;91.80;;;;;;5108829;28;20036;-63
2022/04/04 23:55:16;;;;;;;6.55;3.45;;;12.40;91.90;;;;;;5109924;28;20032;-63
2022/04/04 23:57:42;;;;;;;4.10;2.55;;;12.50;91.50;;;;;;5109774;28;20035;-63
